Maratha Promise — V7YE5 — position and weather

sailwx.info

Track history (hours):
 
Tides and Currents Weather Stations Pressure Air Temp Water Temp Dewpoint Dewpoint Depression Visibility Wind Speed Wind Dir Waves Ship Positions

Maratha Promise

Last reported at 2017-Nov-02 11:56 UTC. Time now 2017-Nov-21 15:44 UTC.
Position N 46°15' W 125°32'.
Warning: this ship's position is 19 days out of date.

Length 178 m; draft 11 m.

Type: Cargo ship. MMSI: 538004641.

Date/timePositionNaut miles runAvg speedWind from/ knotsBaromVisibWave heightAir tempDewpointWater temp
2017-Nov-02 11:56N 46°15' W 125°32'4 9.9
2017-Nov-02 11:31N 46°15' W 125°26'510.1
2017-Nov-02 11:00N 46°15' W 125°19'510.3
2017-Nov-02 10:30N 46°15' W 125°11'916.7
2017-Nov-02 09:58N 46°15' W 124°58'1 1.4
2017-Nov-02 09:30N 46°15' W 124°58'5 9.8
2017-Nov-02 09:01N 46°14' W 124°51'714.7
2017-Nov-02 08:30N 46°14' W 124°40'2 4.4
2017-Nov-02 08:00N 46°14' W 124°37'510.0
2017-Nov-02 07:30N 46°13' W 124°30'5 9.9
2017-Nov-02 07:00N 46°13' W 124°22'510.3
2017-Nov-02 06:30N 46°12' W 124°15'611.5
2017-Nov-02 06:00N 46°14' W 124°07'5 9.3
2017-Nov-02 05:30N 46°15' W 124°01'510.3
2017-Nov-02 05:00N 46°12' W 123°55'4 8.0
2017-Nov-02 04:30N 46°12' W 123°50'510.1
2017-Nov-02 04:00N 46°14' W 123°43'612.0
2017-Nov-02 03:31N 46°15' W 123°35'611.9
2017-Nov-02 03:01N 46°15' W 123°26'612.3
2017-Nov-02 02:31N 46°09' W 123°23'713.4
2017-Nov-02 02:01N 46°10' W 123°14'612.8
2017-Nov-02 01:30N 46°10' W 123°04'612.7
2017-Nov-02 01:00N 46°06' W 122°57'510.5
2017-Nov-02 00:30N 46°02' W 122°53'611.6
2017-Nov-01 23:58N 45°56' W 122°48'512.1
2017-Nov-01 23:31N 45°51' W 122°47'611.6
2017-Nov-01 23:00N 45°45' W 122°46'511.1
2017-Nov-01 22:31N 45°39' W 122°46'1 2.5
2017-Nov-01 21:59N 45°38' W 122°45'0 0.0
2017-Nov-01 21:29N 45°38' W 122°45'0 0.0
2017-Nov-01 20:59N 45°38' W 122°45'0 0.0
2017-Nov-01 20:29N 45°38' W 122°45'0 0.0
2017-Nov-01 19:59N 45°38' W 122°45'0 0.0
2017-Nov-01 19:29N 45°38' W 122°45'0 0.0
2017-Nov-01 18:56N 45°38' W 122°45'0 0.0
2017-Nov-01 18:29N 45°38' W 122°45'0 0.0
2017-Nov-01 01:59N 45°38' W 122°45'0 0.0
2017-Nov-01 01:29N 45°38' W 122°45'0 0.0
2017-Nov-01 00:59N 45°38' W 122°45'0 0.0
2017-Nov-01 00:29N 45°38' W 122°45'0 0.0
2017-Oct-31 23:53N 45°38' W 122°45'0 0.0
2017-Oct-31 23:26N 45°38' W 122°45'0 0.0
2017-Oct-31 22:59N 45°38' W 122°45'0 0.0
2017-Oct-31 22:29N 45°38' W 122°45'0 0.0
2017-Oct-31 21:59N 45°38' W 122°45'0 0.0
2017-Oct-31 21:23N 45°38' W 122°45'0 0.0
2017-Oct-31 20:59N 45°38' W 122°45'0 0.0
2017-Oct-31 20:29N 45°38' W 122°45'0 0.0
2017-Oct-31 19:59N 45°38' W 122°45'0 0.0
2017-Oct-31 19:17N 45°38' W 122°45'0 0.0
2017-Oct-31 18:59N 45°38' W 122°45'0 0.0
2017-Oct-31 18:29N 45°38' W 122°45'0 0.0
2017-Oct-31 17:59N 45°38' W 122°45'0 0.0
2017-Oct-31 17:26N 45°38' W 122°45'0 0.0
2017-Oct-31 16:59N 45°38' W 122°45'0 0.0
2017-Oct-31 16:29N 45°38' W 122°45'0 0.0
2017-Oct-31 15:59N 45°38' W 122°45'0 0.0
2017-Oct-31 15:29N 45°38' W 122°45'0 0.0
2017-Oct-31 14:59N 45°38' W 122°45'0 0.0
2017-Oct-31 14:29N 45°38' W 122°45'0 0.0
2017-Oct-31 13:59N 45°38' W 122°45'0 0.0
2017-Oct-31 13:29N 45°38' W 122°45'0 0.0
2017-Oct-31 12:59N 45°38' W 122°45'0 0.0
2017-Oct-31 12:26N 45°38' W 122°45'0 0.0
2017-Oct-31 11:50N 45°38' W 122°45'0 0.0
2017-Oct-31 11:29N 45°38' W 122°45'0 0.0
2017-Oct-31 10:59N 45°38' W 122°45'0 0.0
2017-Oct-31 10:29N 45°38' W 122°45'0 0.0
2017-Oct-31 09:59N 45°38' W 122°45'0 0.0
2017-Oct-31 09:29N 45°38' W 122°45'0 0.0
2017-Oct-31 08:59N 45°38' W 122°45'0 0.0
2017-Oct-31 08:29N 45°38' W 122°45'0 0.0
2017-Oct-31 07:59N 45°38' W 122°45'0 0.0
2017-Oct-31 07:26N 45°38' W 122°45'0 0.0
2017-Oct-31 06:59N 45°38' W 122°45'0 0.0
2017-Oct-31 06:29N 45°38' W 122°45'0 0.0
2017-Oct-31 05:37N 45°38' W 122°45'0 0.0
2017-Oct-31 05:28N 45°38' W 122°45'0 0.0
2017-Oct-31 04:55N 45°38' W 122°45'0 0.0
2017-Oct-31 04:19N 45°38' W 122°45'0 0.0
2017-Oct-31 03:58N 45°38' W 122°45'0 0.0
2017-Oct-31 03:21N 45°38' W 122°45'0 0.0
2017-Oct-31 02:57N 45°38' W 122°45'0 0.0
2017-Oct-31 02:27N 45°38' W 122°45'0 0.0
2017-Oct-31 02:00N 45°38' W 122°45'0 0.0
2017-Oct-31 01:24N 45°38' W 122°45'0 0.0
2017-Oct-31 01:00N 45°38' W 122°45'0 0.0
2017-Oct-31 00:30N 45°38' W 122°45'0 0.0
2017-Oct-30 23:57N 45°38' W 122°45'0 0.0
2017-Oct-30 23:21N 45°38' W 122°45'0 0.0
2017-Oct-30 22:57N 45°38' W 122°45'0 0.0
2017-Oct-30 22:30N 45°38' W 122°45'0 0.0
2017-Oct-30 22:00N 45°38' W 122°45'0 0.0
2017-Oct-30 21:30N 45°38' W 122°45'0 0.0
2017-Oct-30 20:57N 45°38' W 122°45'0 0.0
2017-Oct-30 20:30N 45°38' W 122°45'0 0.0
2017-Oct-30 20:00N 45°38' W 122°45'0 0.0
2017-Oct-30 19:30N 45°38' W 122°45'0 0.0
2017-Oct-30 19:00N 45°38' W 122°45'0 0.0
2017-Oct-30 18:27N 45°38' W 122°45'0 0.0
2017-Oct-30 17:57N 45°38' W 122°45'0 0.0
2017-Oct-30 17:30N 45°38' W 122°45'0 0.0
2017-Oct-30 16:51N 45°38' W 122°45'0 0.0
2017-Oct-30 16:30N 45°38' W 122°45'0 0.0
2017-Oct-30 16:00N 45°38' W 122°45'0 0.0
2017-Oct-30 15:30N 45°38' W 122°45'0 0.0
2017-Oct-30 15:00N 45°38' W 122°45'0 0.0
2017-Oct-30 14:21N 45°38' W 122°45'0 0.0
2017-Oct-30 13:30N 45°38' W 122°45'0 0.0
2017-Oct-30 13:00N 45°38' W 122°45'0 0.0
2017-Oct-30 12:30N 45°38' W 122°45'0 0.0
2017-Oct-30 12:00N 45°38' W 122°45'0 0.0
2017-Oct-30 11:30N 45°38' W 122°45'0 0.0
2017-Oct-30 11:00N 45°38' W 122°45'0 0.0
2017-Oct-30 10:30N 45°38' W 122°45'0 0.0
2017-Oct-30 09:54N 45°38' W 122°45'0 0.0
2017-Oct-30 09:30N 45°38' W 122°45'0 0.0
2017-Oct-30 09:00N 45°38' W 122°45'0 0.0
2017-Oct-30 08:27N 45°38' W 122°45'0 0.0
2017-Oct-30 08:00N 45°38' W 122°45'0 0.0
2017-Oct-30 07:27N 45°38' W 122°45'0 0.0
2017-Oct-30 07:00N 45°38' W 122°45'0 0.0
2017-Oct-30 06:30N 45°38' W 122°45'0 0.0
2017-Oct-30 05:57N 45°38' W 122°45'0 0.0
2017-Oct-30 05:30N 45°38' W 122°45'0 0.0
2017-Oct-30 05:00N 45°38' W 122°45'0 0.0
2017-Oct-30 04:30N 45°38' W 122°45'0 0.0
2017-Oct-30 04:00N 45°38' W 122°45'0 0.0
2017-Oct-30 03:30N 45°38' W 122°45'0 0.0
2017-Oct-30 02:39N 45°38' W 122°45'0 0.0
2017-Oct-30 02:30N 45°38' W 122°45'0 0.0
2017-Oct-30 01:42N 45°38' W 122°45'0 0.0
2017-Oct-30 01:30N 45°38' W 122°45'0 0.0
2017-Oct-30 00:57N 45°38' W 122°45'0 0.0
2017-Oct-30 00:30N 45°38' W 122°45'0 0.0
2017-Oct-30 00:00N 45°38' W 122°45'0 0.0
2017-Oct-29 23:24N 45°38' W 122°45'0 0.0
2017-Oct-29 23:00N 45°38' W 122°45'0 0.0
2017-Oct-29 22:30N 45°38' W 122°45'0 0.0
2017-Oct-29 22:00N 45°38' W 122°45'0 0.0
2017-Oct-29 21:24N 45°38' W 122°45'0 0.0
2017-Oct-29 21:00N 45°38' W 122°45'0 0.0
2017-Oct-29 20:30N 45°38' W 122°45'0 0.1
2017-Oct-29 20:00N 45°38' W 122°45'1 2.3
2017-Oct-29 19:30N 45°39' W 122°46'3 6.5
2017-Oct-29 19:01N 45°35' W 122°46'4 7.3
2017-Oct-29 18:30N 45°33' W 122°42'2 3.1
2017-Oct-29 18:00N 45°32' W 122°41'0 0.0
2017-Oct-29 17:27N 45°32' W 122°41'0 0.0
2017-Oct-29 17:00N 45°32' W 122°41'0 0.0
2017-Oct-29 16:30N 45°32' W 122°41'0 0.0
2017-Oct-29 16:00N 45°32' W 122°41'0 0.0
2017-Oct-29 15:30N 45°32' W 122°41'0 0.0
2017-Oct-29 15:00N 45°32' W 122°41'0 0.0
2017-Oct-29 14:27N 45°32' W 122°41'0 0.0
2017-Oct-29 14:00N 45°32' W 122°41'0 0.0
2017-Oct-29 13:30N 45°32' W 122°41'0 0.0
2017-Oct-29 13:00N 45°32' W 122°41'0 0.0
2017-Oct-29 12:30N 45°32' W 122°41'0 0.0
2017-Oct-29 12:00N 45°32' W 122°41'0 0.0
2017-Oct-29 11:31N 45°32' W 122°41'0 0.0
2017-Oct-29 11:00N 45°32' W 122°41'0 0.0
2017-Oct-29 10:30N 45°32' W 122°41'0 0.0
2017-Oct-29 10:00N 45°32' W 122°41'0 0.0
2017-Oct-29 09:30N 45°32' W 122°41'0 0.0
2017-Oct-29 09:00N 45°32' W 122°41'0 0.0
2017-Oct-29 08:27N 45°32' W 122°41'0 0.0
2017-Oct-29 08:00N 45°32' W 122°41'0 0.0
2017-Oct-29 07:31N 45°32' W 122°41'0 0.0
2017-Oct-29 07:00N 45°32' W 122°41'0 0.0
2017-Oct-29 06:31N 45°32' W 122°41'0 0.0
2017-Oct-29 06:00N 45°32' W 122°41'0 0.1
2017-Oct-29 05:30N 45°32' W 122°40'0 0.1
2017-Oct-29 05:00N 45°32' W 122°41'0 0.0
2017-Oct-29 04:30N 45°32' W 122°41'0 0.0
2017-Oct-29 04:00N 45°32' W 122°41'0 0.0
2017-Oct-28 19:00N 45°32' W 122°41'0 0.0
2017-Oct-28 18:30N 45°32' W 122°41'0 0.0
2017-Oct-28 18:01N 45°32' W 122°41'0 0.0
2017-Oct-28 17:30N 45°32' W 122°41'0 0.0
2017-Oct-28 17:00N 45°32' W 122°41'0 0.0
2017-Oct-28 16:30N 45°32' W 122°41'0 0.0
2017-Oct-28 16:00N 45°32' W 122°41'0 0.0
2017-Oct-28 15:30N 45°32' W 122°41'0 0.0
2017-Oct-28 15:00N 45°32' W 122°41'0 0.0
2017-Oct-28 14:31N 45°32' W 122°41'0 0.0
2017-Oct-28 14:00N 45°32' W 122°41'0 0.0
2017-Oct-28 13:31N 45°32' W 122°41'0 0.0
2017-Oct-28 13:00N 45°32' W 122°41'0 0.0
2017-Oct-28 12:31N 45°32' W 122°41'0 0.0
2017-Oct-28 11:57N 45°32' W 122°41'0 0.0
2017-Oct-28 11:30N 45°32' W 122°41'0 0.0
2017-Oct-28 11:00N 45°32' W 122°41'0 0.0
2017-Oct-28 10:30N 45°32' W 122°41'0 0.0
2017-Oct-28 10:00N 45°32' W 122°41'0 0.0
2017-Oct-28 09:30N 45°32' W 122°41'0 0.0
2017-Oct-28 09:00N 45°32' W 122°41'0 0.0
2017-Oct-28 08:30N 45°32' W 122°41'0 0.0
2017-Oct-28 08:00N 45°32' W 122°41'0 0.0
2017-Oct-28 07:30N 45°32' W 122°41'0 0.0
2017-Oct-28 07:01N 45°32' W 122°41'0 0.0
2017-Oct-28 06:30N 45°32' W 122°41'0 0.0
2017-Oct-28 06:00N 45°32' W 122°41'0 0.0
2017-Oct-28 05:30N 45°32' W 122°41'0 0.0
2017-Oct-28 05:00N 45°32' W 122°41'0 0.0
2017-Oct-28 04:30N 45°32' W 122°41'0 0.0
2017-Oct-28 04:00N 45°32' W 122°41'0 0.0
2017-Oct-28 03:30N 45°32' W 122°41'0 0.0
2017-Oct-28 03:00N 45°32' W 122°41'0 0.0
2017-Oct-28 02:30N 45°32' W 122°41'0 0.0
2017-Oct-28 02:00N 45°32' W 122°41'0 0.0
2017-Oct-28 01:30N 45°32' W 122°41'0 0.0
2017-Oct-28 01:00N 45°32' W 122°41'0 0.0
2017-Oct-28 00:30N 45°32' W 122°41'0 0.0
2017-Oct-28 00:00N 45°32' W 122°41'0 0.0
2017-Oct-27 23:30N 45°32' W 122°41'0 0.0
2017-Oct-27 23:00N 45°32' W 122°41'0 0.0
2017-Oct-27 22:30N 45°32' W 122°41'0 0.0
2017-Oct-27 22:00N 45°32' W 122°41'0 0.0
2017-Oct-27 21:30N 45°32' W 122°41'0 0.0
2017-Oct-27 21:00N 45°32' W 122°41'0 0.0
2017-Oct-27 20:30N 45°32' W 122°41'1 2.7
2017-Oct-27 20:00N 45°33' W 122°42'4 8.0
2017-Oct-27 19:30N 45°36' W 122°46'4 7.8
2017-Oct-27 18:59N 45°40' W 122°46'511.4
2017-Oct-27 18:30N 45°45' W 122°46'611.5
2017-Oct-27 18:00N 45°51' W 122°47'611.9
2017-Oct-27 17:30N 45°57' W 122°48'3 4.8
2017-Oct-27 16:57N 45°59' W 122°50'0 0.0
2017-Oct-27 16:30N 45°59' W 122°50'0 0.0
2017-Oct-27 16:00N 45°59' W 122°50'0 0.0
2017-Oct-27 15:18N 45°59' W 122°50'0 0.0
2017-Oct-27 14:48N 45°59' W 122°50'0 0.0
2017-Oct-27 14:30N 45°59' W 122°50'0 0.0
2017-Oct-27 13:54N 45°59' W 122°50'0 0.0
2017-Oct-27 13:30N 45°59' W 122°50'0 0.0
2017-Oct-27 13:00N 45°59' W 122°50'0 0.0
2017-Oct-27 12:21N 45°59' W 122°50'0 0.0
2017-Oct-27 11:42N 45°59' W 122°50'0 0.0
2017-Oct-27 11:30N 45°59' W 122°50'0 0.0
2017-Oct-27 11:00N 45°59' W 122°50'0 0.0
2017-Oct-27 10:15N 45°59' W 122°50'0 0.0
2017-Oct-27 10:00N 45°59' W 122°50'0 0.0
2017-Oct-27 09:30N 45°59' W 122°50'0 0.0
2017-Oct-27 09:00N 45°59' W 122°50'0 0.0
2017-Oct-27 08:30N 45°59' W 122°50'0 0.0
2017-Oct-27 08:00N 45°59' W 122°50'0 0.0
2017-Oct-27 07:30N 45°59' W 122°50'0 0.0
2017-Oct-27 07:00N 45°59' W 122°50'0 0.0
2017-Oct-27 06:30N 45°59' W 122°50'0 0.0
2017-Oct-27 05:57N 45°59' W 122°50'0 0.0
2017-Oct-27 05:24N 45°59' W 122°50'0 0.0
2017-Oct-27 05:00N 45°59' W 122°50'0 0.0
2017-Oct-27 04:30N 45°59' W 122°50'0 0.0
2017-Oct-27 04:00N 45°59' W 122°50'0 0.0
2017-Oct-27 03:30N 45°59' W 122°50'0 0.0
2017-Oct-27 02:54N 45°59' W 122°50'0 0.0
2017-Oct-27 02:27N 45°59' W 122°50'0 0.0
2017-Oct-27 01:54N 45°59' W 122°50'0 0.0
2017-Oct-27 01:21N 45°59' W 122°50'0 0.0
2017-Oct-27 01:00N 45°59' W 122°50'0 0.4
2017-Oct-27 00:30N 45°59' W 122°50'5 9.3
2017-Oct-27 00:00N 46°03' W 122°53'5 9.5
2017-Oct-26 23:30N 46°07' W 122°58'0 0.7
2017-Oct-26 22:57N 46°07' W 122°59'0 0.1
2017-Oct-26 22:24N 46°07' W 122°59'0 0.1
2017-Oct-26 22:00N 46°07' W 122°59'0 0.0
2017-Oct-26 21:27N 46°07' W 122°59'0 0.0
2017-Oct-26 20:54N 46°07' W 122°59'0 0.0
2017-Oct-26 20:21N 46°07' W 122°59'0 0.1
2017-Oct-26 20:00N 46°07' W 122°59'0 0.1
2017-Oct-26 19:27N 46°07' W 122°59'0 0.0
2017-Oct-26 18:57N 46°07' W 122°59'0 0.0
2017-Oct-26 18:27N 46°07' W 122°59'0 0.0
2017-Oct-26 17:48N 46°07' W 122°59'0 0.0
2017-Oct-26 17:12N 46°07' W 122°59'0 0.0
2017-Oct-26 17:00N 46°07' W 122°59'0 0.0
2017-Oct-26 16:27N 46°07' W 122°59'0 0.0
2017-Oct-26 16:00N 46°07' W 122°59'0 0.0
2017-Oct-26 15:12N 46°07' W 122°59'0 0.0
2017-Oct-26 14:57N 46°07' W 122°59'0 0.1
2017-Oct-26 14:30N 46°07' W 122°59'0 0.1
2017-Oct-26 14:00N 46°07' W 122°59'0 0.0
2017-Oct-26 13:30N 46°07' W 122°59'0 0.1
2017-Oct-26 12:57N 46°07' W 122°59'0 0.0
2017-Oct-26 12:30N 46°07' W 122°59'0 0.0
2017-Oct-26 12:00N 46°07' W 122°59'0 0.0
2017-Oct-26 11:30N 46°07' W 122°59'0 0.0
2017-Oct-26 11:00N 46°07' W 122°59'0 0.0
2017-Oct-26 10:27N 46°07' W 122°59'0 0.1
2017-Oct-26 10:00N 46°07' W 122°59'0 0.0
2017-Oct-26 09:30N 46°07' W 122°59'0 0.1
2017-Oct-26 08:57N 46°07' W 122°59'0 0.1
2017-Oct-26 08:21N 46°07' W 122°59'0 0.0
2017-Oct-26 08:00N 46°07' W 122°59'0 0.0
2017-Oct-26 07:24N 46°07' W 122°59'0 0.0
2017-Oct-26 07:00N 46°07' W 122°59'0 0.0
2017-Oct-26 06:27N 46°07' W 122°59'0 0.0
2017-Oct-26 06:00N 46°07' W 122°59'0 0.1
2017-Oct-26 05:30N 46°07' W 122°59'2 4.7
2017-Oct-26 05:00N 46°08' W 123°01'612.2
2017-Oct-26 04:30N 46°11' W 123°09'612.3
2017-Oct-26 04:00N 46°09' W 123°17'611.0
2017-Oct-26 03:30N 46°10' W 123°25'510.8
2017-Oct-26 03:00N 46°15' W 123°27'611.7
2017-Oct-26 02:30N 46°15' W 123°35'612.4
2017-Oct-26 02:00N 46°14' W 123°44'510.0
2017-Oct-26 01:30N 46°12' W 123°51'5 9.5
2017-Oct-26 01:00N 46°13' W 123°57'811.0
2017-Oct-26 00:19N 46°14' W 124°08'3 9.4
2017-Oct-26 00:00N 46°12' W 124°12'2 4.8
2017-Oct-25 23:30N 46°10' W 124°12'1 1.7
2017-Oct-25 23:00N 46°11' W 124°13'5 9.1
2017-Oct-25 22:30N 46°10' W 124°19'612.3
2017-Oct-25 22:00N 46°08' W 124°28'612.0
2017-Oct-25 21:30N 46°06' W 124°36'612.2
2017-Oct-25 21:00N 46°05' W 124°44'612.7
2017-Oct-25 20:30N 46°05' W 124°54'612.8
2017-Oct-25 20:00N 46°06' W 125°03'612.7
2017-Oct-25 19:30N 46°06' W 125°12'713.1
2017-Oct-25 18:59N 46°07' W 125°22'613.2
2017-Oct-25 18:30N 46°07' W 125°31'  
Track history (hours):
 
Tides and Currents Weather Stations Pressure Air Temp Water Temp Dewpoint Dewpoint Depression Visibility Wind Speed Wind Dir Waves Ship Positions

Maratha Promise

Last reported at 2017-Nov-02 11:56 UTC. Time now 2017-Nov-21 15:44 UTC.
Position N 46°15' W 125°32'.
Warning: this ship's position is 19 days out of date.

Length 178 m; draft 11 m.

Type: Cargo ship. MMSI: 538004641.

Date/timePositionNaut miles runAvg speedWind from/ knotsBaromVisibWave heightAir tempDewpointWater temp
2017-Nov-02 11:56N 46°15' W 125°32'4 9.9
2017-Nov-02 11:31N 46°15' W 125°26'510.1
2017-Nov-02 11:00N 46°15' W 125°19'510.3
2017-Nov-02 10:30N 46°15' W 125°11'916.7
2017-Nov-02 09:58N 46°15' W 124°58'1 1.4
2017-Nov-02 09:30N 46°15' W 124°58'5 9.8
2017-Nov-02 09:01N 46°14' W 124°51'714.7
2017-Nov-02 08:30N 46°14' W 124°40'2 4.4
2017-Nov-02 08:00N 46°14' W 124°37'510.0
2017-Nov-02 07:30N 46°13' W 124°30'5 9.9
2017-Nov-02 07:00N 46°13' W 124°22'510.3
2017-Nov-02 06:30N 46°12' W 124°15'611.5
2017-Nov-02 06:00N 46°14' W 124°07'5 9.3
2017-Nov-02 05:30N 46°15' W 124°01'510.3
2017-Nov-02 05:00N 46°12' W 123°55'4 8.0
2017-Nov-02 04:30N 46°12' W 123°50'510.1
2017-Nov-02 04:00N 46°14' W 123°43'612.0
2017-Nov-02 03:31N 46°15' W 123°35'611.9
2017-Nov-02 03:01N 46°15' W 123°26'612.3
2017-Nov-02 02:31N 46°09' W 123°23'713.4
2017-Nov-02 02:01N 46°10' W 123°14'612.8
2017-Nov-02 01:30N 46°10' W 123°04'612.7
2017-Nov-02 01:00N 46°06' W 122°57'510.5
2017-Nov-02 00:30N 46°02' W 122°53'611.6
2017-Nov-01 23:58N 45°56' W 122°48'512.1
2017-Nov-01 23:31N 45°51' W 122°47'611.6
2017-Nov-01 23:00N 45°45' W 122°46'511.1
2017-Nov-01 22:31N 45°39' W 122°46'1 2.5
2017-Nov-01 21:59N 45°38' W 122°45'0 0.0
2017-Nov-01 21:29N 45°38' W 122°45'0 0.0
2017-Nov-01 20:59N 45°38' W 122°45'0 0.0
2017-Nov-01 20:29N 45°38' W 122°45'0 0.0
2017-Nov-01 19:59N 45°38' W 122°45'0 0.0
2017-Nov-01 19:29N 45°38' W 122°45'0 0.0
2017-Nov-01 18:56N 45°38' W 122°45'0 0.0
2017-Nov-01 18:29N 45°38' W 122°45'0 0.0
2017-Nov-01 01:59N 45°38' W 122°45'0 0.0
2017-Nov-01 01:29N 45°38' W 122°45'0 0.0
2017-Nov-01 00:59N 45°38' W 122°45'0 0.0
2017-Nov-01 00:29N 45°38' W 122°45'0 0.0
2017-Oct-31 23:53N 45°38' W 122°45'0 0.0
2017-Oct-31 23:26N 45°38' W 122°45'0 0.0
2017-Oct-31 22:59N 45°38' W 122°45'0 0.0
2017-Oct-31 22:29N 45°38' W 122°45'0 0.0
2017-Oct-31 21:59N 45°38' W 122°45'0 0.0
2017-Oct-31 21:23N 45°38' W 122°45'0 0.0
2017-Oct-31 20:59N 45°38' W 122°45'0 0.0
2017-Oct-31 20:29N 45°38' W 122°45'0 0.0
2017-Oct-31 19:59N 45°38' W 122°45'0 0.0
2017-Oct-31 19:17N 45°38' W 122°45'0 0.0
2017-Oct-31 18:59N 45°38' W 122°45'0 0.0
2017-Oct-31 18:29N 45°38' W 122°45'0 0.0
2017-Oct-31 17:59N 45°38' W 122°45'0 0.0
2017-Oct-31 17:26N 45°38' W 122°45'0 0.0
2017-Oct-31 16:59N 45°38' W 122°45'0 0.0
2017-Oct-31 16:29N 45°38' W 122°45'0 0.0
2017-Oct-31 15:59N 45°38' W 122°45'0 0.0
2017-Oct-31 15:29N 45°38' W 122°45'0 0.0
2017-Oct-31 14:59N 45°38' W 122°45'0 0.0
2017-Oct-31 14:29N 45°38' W 122°45'0 0.0
2017-Oct-31 13:59N 45°38' W 122°45'0 0.0
2017-Oct-31 13:29N 45°38' W 122°45'0 0.0
2017-Oct-31 12:59N 45°38' W 122°45'0 0.0
2017-Oct-31 12:26N 45°38' W 122°45'0 0.0
2017-Oct-31 11:50N 45°38' W 122°45'0 0.0
2017-Oct-31 11:29N 45°38' W 122°45'0 0.0
2017-Oct-31 10:59N 45°38' W 122°45'0 0.0
2017-Oct-31 10:29N 45°38' W 122°45'0 0.0
2017-Oct-31 09:59N 45°38' W 122°45'0 0.0
2017-Oct-31 09:29N 45°38' W 122°45'0 0.0
2017-Oct-31 08:59N 45°38' W 122°45'0 0.0
2017-Oct-31 08:29N 45°38' W 122°45'0 0.0
2017-Oct-31 07:59N 45°38' W 122°45'0 0.0
2017-Oct-31 07:26N 45°38' W 122°45'0 0.0
2017-Oct-31 06:59N 45°38' W 122°45'0 0.0
2017-Oct-31 06:29N 45°38' W 122°45'0 0.0
2017-Oct-31 05:37N 45°38' W 122°45'0 0.0
2017-Oct-31 05:28N 45°38' W 122°45'0 0.0
2017-Oct-31 04:55N 45°38' W 122°45'0 0.0
2017-Oct-31 04:19N 45°38' W 122°45'0 0.0
2017-Oct-31 03:58N 45°38' W 122°45'0 0.0
2017-Oct-31 03:21N 45°38' W 122°45'0 0.0
2017-Oct-31 02:57N 45°38' W 122°45'0 0.0
2017-Oct-31 02:27N 45°38' W 122°45'0 0.0
2017-Oct-31 02:00N 45°38' W 122°45'0 0.0
2017-Oct-31 01:24N 45°38' W 122°45'0 0.0
2017-Oct-31 01:00N 45°38' W 122°45'0 0.0
2017-Oct-31 00:30N 45°38' W 122°45'0 0.0
2017-Oct-30 23:57N 45°38' W 122°45'0 0.0
2017-Oct-30 23:21N 45°38' W 122°45'0 0.0
2017-Oct-30 22:57N 45°38' W 122°45'0 0.0
2017-Oct-30 22:30N 45°38' W 122°45'0 0.0
2017-Oct-30 22:00N 45°38' W 122°45'0 0.0
2017-Oct-30 21:30N 45°38' W 122°45'0 0.0
2017-Oct-30 20:57N 45°38' W 122°45'0 0.0
2017-Oct-30 20:30N 45°38' W 122°45'0 0.0
2017-Oct-30 20:00N 45°38' W 122°45'0 0.0
2017-Oct-30 19:30N 45°38' W 122°45'0 0.0
2017-Oct-30 19:00N 45°38' W 122°45'0 0.0
2017-Oct-30 18:27N 45°38' W 122°45'0 0.0
2017-Oct-30 17:57N 45°38' W 122°45'0 0.0
2017-Oct-30 17:30N 45°38' W 122°45'0 0.0
2017-Oct-30 16:51N 45°38' W 122°45'0 0.0
2017-Oct-30 16:30N 45°38' W 122°45'0 0.0
2017-Oct-30 16:00N 45°38' W 122°45'0 0.0
2017-Oct-30 15:30N 45°38' W 122°45'0 0.0
2017-Oct-30 15:00N 45°38' W 122°45'0 0.0
2017-Oct-30 14:21N 45°38' W 122°45'0 0.0
2017-Oct-30 13:30N 45°38' W 122°45'0 0.0
2017-Oct-30 13:00N 45°38' W 122°45'0 0.0
2017-Oct-30 12:30N 45°38' W 122°45'0 0.0
2017-Oct-30 12:00N 45°38' W 122°45'0 0.0
2017-Oct-30 11:30N 45°38' W 122°45'0 0.0
2017-Oct-30 11:00N 45°38' W 122°45'0 0.0
2017-Oct-30 10:30N 45°38' W 122°45'0 0.0
2017-Oct-30 09:54N 45°38' W 122°45'0 0.0
2017-Oct-30 09:30N 45°38' W 122°45'0 0.0
2017-Oct-30 09:00N 45°38' W 122°45'0 0.0
2017-Oct-30 08:27N 45°38' W 122°45'0 0.0
2017-Oct-30 08:00N 45°38' W 122°45'0 0.0
2017-Oct-30 07:27N 45°38' W 122°45'0 0.0
2017-Oct-30 07:00N 45°38' W 122°45'0 0.0
2017-Oct-30 06:30N 45°38' W 122°45'0 0.0
2017-Oct-30 05:57N 45°38' W 122°45'0 0.0
2017-Oct-30 05:30N 45°38' W 122°45'0 0.0
2017-Oct-30 05:00N 45°38' W 122°45'0 0.0
2017-Oct-30 04:30N 45°38' W 122°45'0 0.0
2017-Oct-30 04:00N 45°38' W 122°45'0 0.0
2017-Oct-30 03:30N 45°38' W 122°45'0 0.0
2017-Oct-30 02:39N 45°38' W 122°45'0 0.0
2017-Oct-30 02:30N 45°38' W 122°45'0 0.0
2017-Oct-30 01:42N 45°38' W 122°45'0 0.0
2017-Oct-30 01:30N 45°38' W 122°45'0 0.0
2017-Oct-30 00:57N 45°38' W 122°45'0 0.0
2017-Oct-30 00:30N 45°38' W 122°45'0 0.0
2017-Oct-30 00:00N 45°38' W 122°45'0 0.0
2017-Oct-29 23:24N 45°38' W 122°45'0 0.0
2017-Oct-29 23:00N 45°38' W 122°45'0 0.0
2017-Oct-29 22:30N 45°38' W 122°45'0 0.0
2017-Oct-29 22:00N 45°38' W 122°45'0 0.0
2017-Oct-29 21:24N 45°38' W 122°45'0 0.0
2017-Oct-29 21:00N 45°38' W 122°45'0 0.0
2017-Oct-29 20:30N 45°38' W 122°45'0 0.1
2017-Oct-29 20:00N 45°38' W 122°45'1 2.3
2017-Oct-29 19:30N 45°39' W 122°46'3 6.5
2017-Oct-29 19:01N 45°35' W 122°46'4 7.3
2017-Oct-29 18:30N 45°33' W 122°42'2 3.1
2017-Oct-29 18:00N 45°32' W 122°41'0 0.0
2017-Oct-29 17:27N 45°32' W 122°41'0 0.0
2017-Oct-29 17:00N 45°32' W 122°41'0 0.0
2017-Oct-29 16:30N 45°32' W 122°41'0 0.0
2017-Oct-29 16:00N 45°32' W 122°41'0 0.0
2017-Oct-29 15:30N 45°32' W 122°41'0 0.0
2017-Oct-29 15:00N 45°32' W 122°41'0 0.0
2017-Oct-29 14:27N 45°32' W 122°41'0 0.0
2017-Oct-29 14:00N 45°32' W 122°41'0 0.0
2017-Oct-29 13:30N 45°32' W 122°41'0 0.0
2017-Oct-29 13:00N 45°32' W 122°41'0 0.0
2017-Oct-29 12:30N 45°32' W 122°41'0 0.0
2017-Oct-29 12:00N 45°32' W 122°41'0 0.0
2017-Oct-29 11:31N 45°32' W 122°41'0 0.0
2017-Oct-29 11:00N 45°32' W 122°41'0 0.0
2017-Oct-29 10:30N 45°32' W 122°41'0 0.0
2017-Oct-29 10:00N 45°32' W 122°41'0 0.0
2017-Oct-29 09:30N 45°32' W 122°41'0 0.0
2017-Oct-29 09:00N 45°32' W 122°41'0 0.0
2017-Oct-29 08:27N 45°32' W 122°41'0 0.0
2017-Oct-29 08:00N 45°32' W 122°41'0 0.0
2017-Oct-29 07:31N 45°32' W 122°41'0 0.0
2017-Oct-29 07:00N 45°32' W 122°41'0 0.0
2017-Oct-29 06:31N 45°32' W 122°41'0 0.0
2017-Oct-29 06:00N 45°32' W 122°41'0 0.1
2017-Oct-29 05:30N 45°32' W 122°40'0 0.1
2017-Oct-29 05:00N 45°32' W 122°41'0 0.0
2017-Oct-29 04:30N 45°32' W 122°41'0 0.0
2017-Oct-29 04:00N 45°32' W 122°41'0 0.0
2017-Oct-28 19:00N 45°32' W 122°41'0 0.0
2017-Oct-28 18:30N 45°32' W 122°41'0 0.0
2017-Oct-28 18:01N 45°32' W 122°41'0 0.0
2017-Oct-28 17:30N 45°32' W 122°41'0 0.0
2017-Oct-28 17:00N 45°32' W 122°41'0 0.0
2017-Oct-28 16:30N 45°32' W 122°41'0 0.0
2017-Oct-28 16:00N 45°32' W 122°41'0 0.0
2017-Oct-28 15:30N 45°32' W 122°41'0 0.0
2017-Oct-28 15:00N 45°32' W 122°41'0 0.0
2017-Oct-28 14:31N 45°32' W 122°41'0 0.0
2017-Oct-28 14:00N 45°32' W 122°41'0 0.0
2017-Oct-28 13:31N 45°32' W 122°41'0 0.0
2017-Oct-28 13:00N 45°32' W 122°41'0 0.0
2017-Oct-28 12:31N 45°32' W 122°41'0 0.0
2017-Oct-28 11:57N 45°32' W 122°41'0 0.0
2017-Oct-28 11:30N 45°32' W 122°41'0 0.0
2017-Oct-28 11:00N 45°32' W 122°41'0 0.0
2017-Oct-28 10:30N 45°32' W 122°41'0 0.0
2017-Oct-28 10:00N 45°32' W 122°41'0 0.0
2017-Oct-28 09:30N 45°32' W 122°41'0 0.0
2017-Oct-28 09:00N 45°32' W 122°41'0 0.0
2017-Oct-28 08:30N 45°32' W 122°41'0 0.0
2017-Oct-28 08:00N 45°32' W 122°41'0 0.0
2017-Oct-28 07:30N 45°32' W 122°41'0 0.0
2017-Oct-28 07:01N 45°32' W 122°41'0 0.0
2017-Oct-28 06:30N 45°32' W 122°41'0 0.0
2017-Oct-28 06:00N 45°32' W 122°41'0 0.0
2017-Oct-28 05:30N 45°32' W 122°41'0 0.0
2017-Oct-28 05:00N 45°32' W 122°41'0 0.0
2017-Oct-28 04:30N 45°32' W 122°41'0 0.0
2017-Oct-28 04:00N 45°32' W 122°41'0 0.0
2017-Oct-28 03:30N 45°32' W 122°41'0 0.0
2017-Oct-28 03:00N 45°32' W 122°41'0 0.0
2017-Oct-28 02:30N 45°32' W 122°41'0 0.0
2017-Oct-28 02:00N 45°32' W 122°41'0 0.0
2017-Oct-28 01:30N 45°32' W 122°41'0 0.0
2017-Oct-28 01:00N 45°32' W 122°41'0 0.0
2017-Oct-28 00:30N 45°32' W 122°41'0 0.0
2017-Oct-28 00:00N 45°32' W 122°41'0 0.0
2017-Oct-27 23:30N 45°32' W 122°41'0 0.0
2017-Oct-27 23:00N 45°32' W 122°41'0 0.0
2017-Oct-27 22:30N 45°32' W 122°41'0 0.0
2017-Oct-27 22:00N 45°32' W 122°41'0 0.0
2017-Oct-27 21:30N 45°32' W 122°41'0 0.0
2017-Oct-27 21:00N 45°32' W 122°41'0 0.0
2017-Oct-27 20:30N 45°32' W 122°41'1 2.7
2017-Oct-27 20:00N 45°33' W 122°42'4 8.0
2017-Oct-27 19:30N 45°36' W 122°46'4 7.8
2017-Oct-27 18:59N 45°40' W 122°46'511.4
2017-Oct-27 18:30N 45°45' W 122°46'611.5
2017-Oct-27 18:00N 45°51' W 122°47'611.9
2017-Oct-27 17:30N 45°57' W 122°48'3 4.8
2017-Oct-27 16:57N 45°59' W 122°50'0 0.0
2017-Oct-27 16:30N 45°59' W 122°50'0 0.0
2017-Oct-27 16:00N 45°59' W 122°50'0 0.0
2017-Oct-27 15:18N 45°59' W 122°50'0 0.0
2017-Oct-27 14:48N 45°59' W 122°50'0 0.0
2017-Oct-27 14:30N 45°59' W 122°50'0 0.0
2017-Oct-27 13:54N 45°59' W 122°50'0 0.0
2017-Oct-27 13:30N 45°59' W 122°50'0 0.0
2017-Oct-27 13:00N 45°59' W 122°50'0 0.0
2017-Oct-27 12:21N 45°59' W 122°50'0 0.0
2017-Oct-27 11:42N 45°59' W 122°50'0 0.0
2017-Oct-27 11:30N 45°59' W 122°50'0 0.0
2017-Oct-27 11:00N 45°59' W 122°50'0 0.0
2017-Oct-27 10:15N 45°59' W 122°50'0 0.0
2017-Oct-27 10:00N 45°59' W 122°50'0 0.0
2017-Oct-27 09:30N 45°59' W 122°50'0 0.0
2017-Oct-27 09:00N 45°59' W 122°50'0 0.0
2017-Oct-27 08:30N 45°59' W 122°50'0 0.0
2017-Oct-27 08:00N 45°59' W 122°50'0 0.0
2017-Oct-27 07:30N 45°59' W 122°50'0 0.0
2017-Oct-27 07:00N 45°59' W 122°50'0 0.0
2017-Oct-27 06:30N 45°59' W 122°50'0 0.0
2017-Oct-27 05:57N 45°59' W 122°50'0 0.0
2017-Oct-27 05:24N 45°59' W 122°50'0 0.0
2017-Oct-27 05:00N 45°59' W 122°50'0 0.0
2017-Oct-27 04:30N 45°59' W 122°50'0 0.0
2017-Oct-27 04:00N 45°59' W 122°50'0 0.0
2017-Oct-27 03:30N 45°59' W 122°50'0 0.0
2017-Oct-27 02:54N 45°59' W 122°50'0 0.0
2017-Oct-27 02:27N 45°59' W 122°50'0 0.0
2017-Oct-27 01:54N 45°59' W 122°50'0 0.0
2017-Oct-27 01:21N 45°59' W 122°50'0 0.0
2017-Oct-27 01:00N 45°59' W 122°50'0 0.4
2017-Oct-27 00:30N 45°59' W 122°50'5 9.3
2017-Oct-27 00:00N 46°03' W 122°53'5 9.5
2017-Oct-26 23:30N 46°07' W 122°58'0 0.7
2017-Oct-26 22:57N 46°07' W 122°59'0 0.1
2017-Oct-26 22:24N 46°07' W 122°59'0 0.1
2017-Oct-26 22:00N 46°07' W 122°59'0 0.0
2017-Oct-26 21:27N 46°07' W 122°59'0 0.0
2017-Oct-26 20:54N 46°07' W 122°59'0 0.0
2017-Oct-26 20:21N 46°07' W 122°59'0 0.1
2017-Oct-26 20:00N 46°07' W 122°59'0 0.1
2017-Oct-26 19:27N 46°07' W 122°59'0 0.0
2017-Oct-26 18:57N 46°07' W 122°59'0 0.0
2017-Oct-26 18:27N 46°07' W 122°59'0 0.0
2017-Oct-26 17:48N 46°07' W 122°59'0 0.0
2017-Oct-26 17:12N 46°07' W 122°59'0 0.0
2017-Oct-26 17:00N 46°07' W 122°59'0 0.0
2017-Oct-26 16:27N 46°07' W 122°59'0 0.0
2017-Oct-26 16:00N 46°07' W 122°59'0 0.0
2017-Oct-26 15:12N 46°07' W 122°59'0 0.0
2017-Oct-26 14:57N 46°07' W 122°59'0 0.1
2017-Oct-26 14:30N 46°07' W 122°59'0 0.1
2017-Oct-26 14:00N 46°07' W 122°59'0 0.0
2017-Oct-26 13:30N 46°07' W 122°59'0 0.1
2017-Oct-26 12:57N 46°07' W 122°59'0 0.0
2017-Oct-26 12:30N 46°07' W 122°59'0 0.0
2017-Oct-26 12:00N 46°07' W 122°59'0 0.0
2017-Oct-26 11:30N 46°07' W 122°59'0 0.0
2017-Oct-26 11:00N 46°07' W 122°59'0 0.0
2017-Oct-26 10:27N 46°07' W 122°59'0 0.1
2017-Oct-26 10:00N 46°07' W 122°59'0 0.0
2017-Oct-26 09:30N 46°07' W 122°59'0 0.1
2017-Oct-26 08:57N 46°07' W 122°59'0 0.1
2017-Oct-26 08:21N 46°07' W 122°59'0 0.0
2017-Oct-26 08:00N 46°07' W 122°59'0 0.0
2017-Oct-26 07:24N 46°07' W 122°59'0 0.0
2017-Oct-26 07:00N 46°07' W 122°59'0 0.0
2017-Oct-26 06:27N 46°07' W 122°59'0 0.0
2017-Oct-26 06:00N 46°07' W 122°59'0 0.1
2017-Oct-26 05:30N 46°07' W 122°59'2 4.7
2017-Oct-26 05:00N 46°08' W 123°01'612.2
2017-Oct-26 04:30N 46°11' W 123°09'612.3
2017-Oct-26 04:00N 46°09' W 123°17'611.0
2017-Oct-26 03:30N 46°10' W 123°25'510.8
2017-Oct-26 03:00N 46°15' W 123°27'611.7
2017-Oct-26 02:30N 46°15' W 123°35'612.4
2017-Oct-26 02:00N 46°14' W 123°44'510.0
2017-Oct-26 01:30N 46°12' W 123°51'5 9.5
2017-Oct-26 01:00N 46°13' W 123°57'811.0
2017-Oct-26 00:19N 46°14' W 124°08'3 9.4
2017-Oct-26 00:00N 46°12' W 124°12'2 4.8
2017-Oct-25 23:30N 46°10' W 124°12'1 1.7
2017-Oct-25 23:00N 46°11' W 124°13'5 9.1
2017-Oct-25 22:30N 46°10' W 124°19'612.3
2017-Oct-25 22:00N 46°08' W 124°28'612.0
2017-Oct-25 21:30N 46°06' W 124°36'612.2
2017-Oct-25 21:00N 46°05' W 124°44'612.7
2017-Oct-25 20:30N 46°05' W 124°54'612.8
2017-Oct-25 20:00N 46°06' W 125°03'612.7
2017-Oct-25 19:30N 46°06' W 125°12'713.1
2017-Oct-25 18:59N 46°07' W 125°22'613.2
2017-Oct-25 18:30N 46°07' W 125°31'  

Dump ship's entire track history